sensor_id;sensor_type;location;lat;lon;timestamp;P1;durP1;ratioP1;P2;durP2;ratioP2
79284;SDS011;68734;50.452;11.636;2023-08-21T00:01:01;0.30;;;0.30;;
79284;SDS011;68734;50.452;11.636;2023-08-21T00:03:26;0.82;;;0.60;;
79284;SDS011;68734;50.452;11.636;2023-08-21T00:05:54;0.38;;;0.38;;
79284;SDS011;68734;50.452;11.636;2023-08-21T00:08:19;0.50;;;0.45;;
79284;SDS011;68734;50.452;11.636;2023-08-21T00:10:47;0.20;;;0.20;;
79284;SDS011;68734;50.452;11.636;2023-08-21T00:13:13;0.40;;;0.40;;
79284;SDS011;68734;50.452;11.636;2023-08-21T00:15:38;0.43;;;0.43;;
79284;SDS011;68734;50.452;11.636;2023-08-21T00:18:06;0.50;;;0.50;;
79284;SDS011;68734;50.452;11.636;2023-08-21T00:20:32;0.40;;;0.40;;
79284;SDS011;68734;50.452;11.636;2023-08-21T00:22:57;0.55;;;0.30;;
79284;SDS011;68734;50.452;11.636;2023-08-21T00:25:23;0.28;;;0.28;;
79284;SDS011;68734;50.452;11.636;2023-08-21T00:27:48;0.40;;;0.40;;
79284;SDS011;68734;50.452;11.636;2023-08-21T00:30:19;0.30;;;0.30;;
79284;SDS011;68734;50.452;11.636;2023-08-21T00:32:45;0.30;;;0.30;;
79284;SDS011;68734;50.452;11.636;2023-08-21T00:35:10;0.47;;;0.47;;
79284;SDS011;68734;50.452;11.636;2023-08-21T00:37:35;0.50;;;0.45;;
79284;SDS011;68734;50.452;11.636;2023-08-21T00:40:03;0.40;;;0.40;;
79284;SDS011;68734;50.452;11.636;2023-08-21T00:42:32;0.40;;;0.40;;
79284;SDS011;68734;50.452;11.636;2023-08-21T00:44:57;0.30;;;0.30;;
79284;SDS011;68734;50.452;11.636;2023-08-21T00:47:23;0.40;;;0.40;;
79284;SDS011;68734;50.452;11.636;2023-08-21T00:49:48;0.40;;;0.40;;
79284;SDS011;68734;50.452;11.636;2023-08-21T00:52:16;0.30;;;0.30;;
79284;SDS011;68734;50.452;11.636;2023-08-21T00:54:43;0.30;;;0.30;;
79284;SDS011;68734;50.452;11.636;2023-08-21T00:57:11;0.30;;;0.30;;
79284;SDS011;68734;50.452;11.636;2023-08-21T00:59:37;0.40;;;0.40;;
79284;SDS011;68734;50.452;11.636;2023-08-21T01:02:03;0.88;;;0.40;;
79284;SDS011;68734;50.452;11.636;2023-08-21T01:04:31;0.40;;;0.40;;
79284;SDS011;68734;50.452;11.636;2023-08-21T01:06:57;0.40;;;0.40;;
79284;SDS011;68734;50.452;11.636;2023-08-21T01:10:26;0.65;;;0.50;;
79284;SDS011;68734;50.452;11.636;2023-08-21T01:12:25;0.47;;;0.43;;
79284;SDS011;68734;50.452;11.636;2023-08-21T01:15:05;0.40;;;0.40;;
79284;SDS011;68734;50.452;11.636;2023-08-21T01:17:36;0.38;;;0.38;;
79284;SDS011;68734;50.452;11.636;2023-08-21T01:20:03;0.40;;;0.40;;
79284;SDS011;68734;50.452;11.636;2023-08-21T01:22:35;0.50;;;0.50;;
79284;SDS011;68734;50.452;11.636;2023-08-21T01:25:01;0.30;;;0.30;;
79284;SDS011;68734;50.452;11.636;2023-08-21T01:27:27;0.68;;;0.43;;
79284;SDS011;68734;50.452;11.636;2023-08-21T01:29:55;0.40;;;0.40;;
79284;SDS011;68734;50.452;11.636;2023-08-21T01:32:25;0.55;;;0.40;;
79284;SDS011;68734;50.452;11.636;2023-08-21T01:34:58;0.50;;;0.50;;
79284;SDS011;68734;50.452;11.636;2023-08-21T01:37:24;0.35;;;0.35;;
79284;SDS011;68734;50.452;11.636;2023-08-21T01:39:53;0.32;;;0.32;;
79284;SDS011;68734;50.452;11.636;2023-08-21T01:42:18;0.30;;;0.30;;
79284;SDS011;68734;50.452;11.636;2023-08-21T01:44:43;0.38;;;0.38;;
79284;SDS011;68734;50.452;11.636;2023-08-21T01:47:11;1.15;;;0.40;;
79284;SDS011;68734;50.452;11.636;2023-08-21T01:49:37;0.40;;;0.40;;
79284;SDS011;68734;50.452;11.636;2023-08-21T01:52:02;0.30;;;0.30;;
79284;SDS011;68734;50.452;11.636;2023-08-21T01:54:30;0.50;;;0.50;;
79284;SDS011;68734;50.452;11.636;2023-08-21T01:56:56;0.50;;;0.50;;
79284;SDS011;68734;50.452;11.636;2023-08-21T01:59:22;0.45;;;0.45;;
79284;SDS011;68734;50.452;11.636;2023-08-21T02:01:49;0.30;;;0.30;;
79284;SDS011;68734;50.452;11.636;2023-08-21T02:04:14;0.45;;;0.45;;
79284;SDS011;68734;50.452;11.636;2023-08-21T02:06:39;0.40;;;0.40;;
79284;SDS011;68734;50.452;11.636;2023-08-21T02:09:05;0.50;;;0.40;;
79284;SDS011;68734;50.452;11.636;2023-08-21T02:11:30;0.40;;;0.40;;
79284;SDS011;68734;50.452;11.636;2023-08-21T02:13:56;0.32;;;0.32;;
79284;SDS011;68734;50.452;11.636;2023-08-21T02:16:27;0.38;;;0.38;;
79284;SDS011;68734;50.452;11.636;2023-08-21T02:18:52;0.75;;;0.60;;
79284;SDS011;68734;50.452;11.636;2023-08-21T02:21:20;0.30;;;0.30;;
79284;SDS011;68734;50.452;11.636;2023-08-21T02:23:48;0.47;;;0.47;;
79284;SDS011;68734;50.452;11.636;2023-08-21T02:26:16;0.40;;;0.40;;
79284;SDS011;68734;50.452;11.636;2023-08-21T02:28:41;0.50;;;0.50;;
79284;SDS011;68734;50.452;11.636;2023-08-21T02:31:09;0.30;;;0.30;;
79284;SDS011;68734;50.452;11.636;2023-08-21T02:33:38;0.65;;;0.43;;
79284;SDS011;68734;50.452;11.636;2023-08-21T02:36:03;0.40;;;0.40;;
79284;SDS011;68734;50.452;11.636;2023-08-21T02:38:29;1.13;;;0.30;;
79284;SDS011;68734;50.452;11.636;2023-08-21T02:40:55;0.32;;;0.32;;
79284;SDS011;68734;50.452;11.636;2023-08-21T02:43:20;0.40;;;0.40;;
79284;SDS011;68734;50.452;11.636;2023-08-21T02:45:48;0.40;;;0.40;;
79284;SDS011;68734;50.452;11.636;2023-08-21T02:48:14;0.38;;;0.38;;
79284;SDS011;68734;50.452;11.636;2023-08-21T02:50:39;0.75;;;0.30;;
79284;SDS011;68734;50.452;11.636;2023-08-21T02:53:06;0.40;;;0.40;;
79284;SDS011;68734;50.452;11.636;2023-08-21T02:55:32;0.30;;;0.30;;
79284;SDS011;68734;50.452;11.636;2023-08-21T02:57:57;0.50;;;0.40;;
79284;SDS011;68734;50.452;11.636;2023-08-21T03:00:23;0.25;;;0.25;;
79284;SDS011;68734;50.452;11.636;2023-08-21T03:02:49;0.35;;;0.30;;
79284;SDS011;68734;50.452;11.636;2023-08-21T03:05:15;0.40;;;0.40;;
79284;SDS011;68734;50.452;11.636;2023-08-21T03:07:40;0.40;;;0.40;;
79284;SDS011;68734;50.452;11.636;2023-08-21T03:10:06;0.40;;;0.40;;
79284;SDS011;68734;50.452;11.636;2023-08-21T03:12:32;0.30;;;0.30;;
79284;SDS011;68734;50.452;11.636;2023-08-21T03:14:58;0.50;;;0.50;;
79284;SDS011;68734;50.452;11.636;2023-08-21T03:17:24;0.40;;;0.40;;
79284;SDS011;68734;50.452;11.636;2023-08-21T03:19:49;0.30;;;0.30;;
79284;SDS011;68734;50.452;11.636;2023-08-21T03:22:15;0.40;;;0.40;;
79284;SDS011;68734;50.452;11.636;2023-08-21T03:24:43;0.30;;;0.30;;
79284;SDS011;68734;50.452;11.636;2023-08-21T03:27:10;0.30;;;0.30;;
79284;SDS011;68734;50.452;11.636;2023-08-21T03:29:36;0.30;;;0.30;;
79284;SDS011;68734;50.452;11.636;2023-08-21T03:32:01;0.40;;;0.40;;
79284;SDS011;68734;50.452;11.636;2023-08-21T03:34:27;0.40;;;0.40;;
79284;SDS011;68734;50.452;11.636;2023-08-21T03:36:52;0.30;;;0.30;;
79284;SDS011;68734;50.452;11.636;2023-08-21T03:39:17;0.30;;;0.30;;
79284;SDS011;68734;50.452;11.636;2023-08-21T03:41:43;0.40;;;0.40;;
79284;SDS011;68734;50.452;11.636;2023-08-21T03:44:08;0.30;;;0.30;;
79284;SDS011;68734;50.452;11.636;2023-08-21T03:46:34;0.30;;;0.30;;
79284;SDS011;68734;50.452;11.636;2023-08-21T03:48:59;0.40;;;0.40;;
79284;SDS011;68734;50.452;11.636;2023-08-21T03:51:25;0.40;;;0.40;;
79284;SDS011;68734;50.452;11.636;2023-08-21T03:53:50;0.30;;;0.30;;
79284;SDS011;68734;50.452;11.636;2023-08-21T03:56:16;0.30;;;0.30;;
79284;SDS011;68734;50.452;11.636;2023-08-21T03:58:41;0.32;;;0.30;;
79284;SDS011;68734;50.452;11.636;2023-08-21T04:01:07;0.47;;;0.47;;
79284;SDS011;68734;50.452;11.636;2023-08-21T04:03:34;0.30;;;0.30;;
79284;SDS011;68734;50.452;11.636;2023-08-21T04:06:01;0.30;;;0.30;;
79284;SDS011;68734;50.452;11.636;2023-08-21T04:08:29;0.35;;;0.35;;
79284;SDS011;68734;50.452;11.636;2023-08-21T04:10:54;0.30;;;0.30;;
79284;SDS011;68734;50.452;11.636;2023-08-21T04:13:24;0.30;;;0.30;;
79284;SDS011;68734;50.452;11.636;2023-08-21T04:15:49;0.70;;;0.30;;
79284;SDS011;68734;50.452;11.636;2023-08-21T04:18:16;0.30;;;0.30;;
79284;SDS011;68734;50.452;11.636;2023-08-21T04:20:43;0.40;;;0.40;;
79284;SDS011;68734;50.452;11.636;2023-08-21T04:23:09;0.30;;;0.30;;
79284;SDS011;68734;50.452;11.636;2023-08-21T04:25:35;0.20;;;0.20;;
79284;SDS011;68734;50.452;11.636;2023-08-21T04:28:00;0.30;;;0.30;;
79284;SDS011;68734;50.452;11.636;2023-08-21T04:30:26;0.25;;;0.25;;
79284;SDS011;68734;50.452;11.636;2023-08-21T04:32:53;0.40;;;0.40;;
79284;SDS011;68734;50.452;11.636;2023-08-21T04:35:19;0.30;;;0.30;;
79284;SDS011;68734;50.452;11.636;2023-08-21T04:37:46;0.30;;;0.30;;
79284;SDS011;68734;50.452;11.636;2023-08-21T04:40:12;0.43;;;0.30;;
79284;SDS011;68734;50.452;11.636;2023-08-21T04:42:38;0.30;;;0.30;;
79284;SDS011;68734;50.452;11.636;2023-08-21T04:45:04;0.17;;;0.17;;
79284;SDS011;68734;50.452;11.636;2023-08-21T04:47:30;0.75;;;0.30;;
79284;SDS011;68734;50.452;11.636;2023-08-21T04:49:56;0.20;;;0.20;;
79284;SDS011;68734;50.452;11.636;2023-08-21T04:52:23;0.25;;;0.25;;
79284;SDS011;68734;50.452;11.636;2023-08-21T04:54:54;0.30;;;0.30;;
79284;SDS011;68734;50.452;11.636;2023-08-21T04:57:19;1.38;;;0.30;;
79284;SDS011;68734;50.452;11.636;2023-08-21T04:59:46;0.10;;;0.10;;
79284;SDS011;68734;50.452;11.636;2023-08-21T05:02:12;1.00;;;0.20;;
79284;SDS011;68734;50.452;11.636;2023-08-21T05:04:40;0.30;;;0.30;;
79284;SDS011;68734;50.452;11.636;2023-08-21T05:07:05;0.68;;;0.40;;
79284;SDS011;68734;50.452;11.636;2023-08-21T05:09:31;1.02;;;0.20;;
79284;SDS011;68734;50.452;11.636;2023-08-21T05:11:59;0.38;;;0.20;;
79284;SDS011;68734;50.452;11.636;2023-08-21T05:14:27;0.20;;;0.20;;
79284;SDS011;68734;50.452;11.636;2023-08-21T05:16:53;0.30;;;0.30;;
79284;SDS011;68734;50.452;11.636;2023-08-21T05:19:18;0.20;;;0.20;;
79284;SDS011;68734;50.452;11.636;2023-08-21T05:21:45;0.25;;;0.20;;
79284;SDS011;68734;50.452;11.636;2023-08-21T05:24:10;0.20;;;0.20;;
79284;SDS011;68734;50.452;11.636;2023-08-21T05:26:36;0.30;;;0.13;;
79284;SDS011;68734;50.452;11.636;2023-08-21T05:29:02;0.22;;;0.20;;
79284;SDS011;68734;50.452;11.636;2023-08-21T05:31:28;0.30;;;0.30;;
79284;SDS011;68734;50.452;11.636;2023-08-21T05:33:56;0.20;;;0.20;;
79284;SDS011;68734;50.452;11.636;2023-08-21T05:36:24;0.30;;;0.13;;
79284;SDS011;68734;50.452;11.636;2023-08-21T05:38:49;0.43;;;0.15;;
79284;SDS011;68734;50.452;11.636;2023-08-21T05:41:16;0.13;;;0.13;;
79284;SDS011;68734;50.452;11.636;2023-08-21T05:43:42;0.30;;;0.20;;
79284;SDS011;68734;50.452;11.636;2023-08-21T05:46:10;0.10;;;0.10;;
79284;SDS011;68734;50.452;11.636;2023-08-21T05:48:36;0.55;;;0.30;;
79284;SDS011;68734;50.452;11.636;2023-08-21T05:51:01;0.10;;;0.10;;
79284;SDS011;68734;50.452;11.636;2023-08-21T05:53:27;0.10;;;0.10;;
79284;SDS011;68734;50.452;11.636;2023-08-21T05:55:53;0.30;;;0.17;;
79284;SDS011;68734;50.452;11.636;2023-08-21T05:58:19;0.17;;;0.15;;
79284;SDS011;68734;50.452;11.636;2023-08-21T06:00:46;0.20;;;0.20;;
79284;SDS011;68734;50.452;11.636;2023-08-21T06:03:11;0.10;;;0.10;;
79284;SDS011;68734;50.452;11.636;2023-08-21T06:05:37;0.05;;;0.05;;
79284;SDS011;68734;50.452;11.636;2023-08-21T06:08:04;0.20;;;0.20;;
79284;SDS011;68734;50.452;11.636;2023-08-21T06:10:30;0.20;;;0.20;;
79284;SDS011;68734;50.452;11.636;2023-08-21T06:12:56;0.20;;;0.20;;
79284;SDS011;68734;50.452;11.636;2023-08-21T06:15:25;0.15;;;0.15;;
79284;SDS011;68734;50.452;11.636;2023-08-21T06:17:50;0.10;;;0.10;;
79284;SDS011;68734;50.452;11.636;2023-08-21T06:20:16;0.38;;;0.13;;
79284;SDS011;68734;50.452;11.636;2023-08-21T06:22:41;0.13;;;0.10;;
79284;SDS011;68734;50.452;11.636;2023-08-21T06:25:07;0.22;;;0.22;;
79284;SDS011;68734;50.452;11.636;2023-08-21T06:27:33;0.40;;;0.30;;
79284;SDS011;68734;50.452;11.636;2023-08-21T06:29:59;0.90;;;0.20;;
79284;SDS011;68734;50.452;11.636;2023-08-21T06:32:26;0.20;;;0.20;;
79284;SDS011;68734;50.452;11.636;2023-08-21T06:34:54;0.13;;;0.13;;
79284;SDS011;68734;50.452;11.636;2023-08-21T06:37:20;0.10;;;0.10;;
79284;SDS011;68734;50.452;11.636;2023-08-21T06:39:45;0.13;;;0.13;;
79284;SDS011;68734;50.452;11.636;2023-08-21T06:42:11;0.35;;;0.20;;
79284;SDS011;68734;50.452;11.636;2023-08-21T06:44:36;0.28;;;0.28;;
79284;SDS011;68734;50.452;11.636;2023-08-21T06:47:01;0.22;;;0.20;;
79284;SDS011;68734;50.452;11.636;2023-08-21T06:49:27;0.20;;;0.20;;
79284;SDS011;68734;50.452;11.636;2023-08-21T06:51:54;0.25;;;0.20;;
79284;SDS011;68734;50.452;11.636;2023-08-21T06:54:20;0.10;;;0.10;;
79284;SDS011;68734;50.452;11.636;2023-08-21T06:56:46;0.30;;;0.30;;
79284;SDS011;68734;50.452;11.636;2023-08-21T06:59:11;0.35;;;0.20;;
79284;SDS011;68734;50.452;11.636;2023-08-21T07:01:36;0.20;;;0.20;;
79284;SDS011;68734;50.452;11.636;2023-08-21T07:04:02;0.40;;;0.30;;
79284;SDS011;68734;50.452;11.636;2023-08-21T07:06:28;0.35;;;0.30;;
79284;SDS011;68734;50.452;11.636;2023-08-21T07:08:54;0.30;;;0.30;;
79284;SDS011;68734;50.452;11.636;2023-08-21T07:11:19;0.40;;;0.32;;
79284;SDS011;68734;50.452;11.636;2023-08-21T07:13:45;0.47;;;0.45;;
79284;SDS011;68734;50.452;11.636;2023-08-21T07:16:10;0.47;;;0.20;;
79284;SDS011;68734;50.452;11.636;2023-08-21T07:18:36;0.20;;;0.20;;
79284;SDS011;68734;50.452;11.636;2023-08-21T07:21:03;0.20;;;0.20;;
79284;SDS011;68734;50.452;11.636;2023-08-21T07:23:31;0.30;;;0.30;;
79284;SDS011;68734;50.452;11.636;2023-08-21T07:25:57;0.40;;;0.40;;
79284;SDS011;68734;50.452;11.636;2023-08-21T07:28:23;0.20;;;0.20;;
79284;SDS011;68734;50.452;11.636;2023-08-21T07:30:55;0.30;;;0.30;;
79284;SDS011;68734;50.452;11.636;2023-08-21T07:33:22;0.40;;;0.30;;
79284;SDS011;68734;50.452;11.636;2023-08-21T07:35:48;0.20;;;0.20;;
79284;SDS011;68734;50.452;11.636;2023-08-21T07:38:22;0.22;;;0.20;;
79284;SDS011;68734;50.452;11.636;2023-08-21T07:40:47;0.20;;;0.20;;
79284;SDS011;68734;50.452;11.636;2023-08-21T07:43:12;0.55;;;0.30;;
79284;SDS011;68734;50.452;11.636;2023-08-21T07:45:38;0.32;;;0.20;;
79284;SDS011;68734;50.452;11.636;2023-08-21T07:48:06;0.10;;;0.10;;
79284;SDS011;68734;50.452;11.636;2023-08-21T07:50:31;0.20;;;0.20;;
79284;SDS011;68734;50.452;11.636;2023-08-21T07:52:57;0.45;;;0.13;;
79284;SDS011;68734;50.452;11.636;2023-08-21T07:55:24;0.35;;;0.30;;
79284;SDS011;68734;50.452;11.636;2023-08-21T07:57:50;0.28;;;0.20;;
79284;SDS011;68734;50.452;11.636;2023-08-21T08:00:15;0.20;;;0.20;;
79284;SDS011;68734;50.452;11.636;2023-08-21T08:02:41;0.20;;;0.20;;
79284;SDS011;68734;50.452;11.636;2023-08-21T08:05:08;0.20;;;0.20;;
79284;SDS011;68734;50.452;11.636;2023-08-21T08:07:34;0.40;;;0.30;;
79284;SDS011;68734;50.452;11.636;2023-08-21T08:09:59;0.38;;;0.38;;
79284;SDS011;68734;50.452;11.636;2023-08-21T08:12:25;0.30;;;0.30;;
79284;SDS011;68734;50.452;11.636;2023-08-21T08:14:50;0.30;;;0.28;;
79284;SDS011;68734;50.452;11.636;2023-08-21T08:17:16;0.32;;;0.20;;
79284;SDS011;68734;50.452;11.636;2023-08-21T08:19:41;0.30;;;0.30;;
79284;SDS011;68734;50.452;11.636;2023-08-21T08:22:06;0.77;;;0.30;;
79284;SDS011;68734;50.452;11.636;2023-08-21T08:24:32;0.50;;;0.43;;
79284;SDS011;68734;50.452;11.636;2023-08-21T08:26:57;0.63;;;0.32;;
79284;SDS011;68734;50.452;11.636;2023-08-21T08:29:23;0.30;;;0.30;;
79284;SDS011;68734;50.452;11.636;2023-08-21T08:31:48;0.40;;;0.40;;
79284;SDS011;68734;50.452;11.636;2023-08-21T08:34:13;0.22;;;0.22;;
79284;SDS011;68734;50.452;11.636;2023-08-21T08:36:39;0.40;;;0.40;;
79284;SDS011;68734;50.452;11.636;2023-08-21T08:39:06;0.40;;;0.40;;
79284;SDS011;68734;50.452;11.636;2023-08-21T08:42:05;0.45;;;0.40;;
79284;SDS011;68734;50.452;11.636;2023-08-21T08:44:27;0.40;;;0.40;;
79284;SDS011;68734;50.452;11.636;2023-08-21T08:46:55;0.43;;;0.43;;
79284;SDS011;68734;50.452;11.636;2023-08-21T08:49:24;0.50;;;0.45;;
79284;SDS011;68734;50.452;11.636;2023-08-21T08:51:50;0.50;;;0.50;;
79284;SDS011;68734;50.452;11.636;2023-08-21T08:54:16;0.40;;;0.30;;
79284;SDS011;68734;50.452;11.636;2023-08-21T08:56:43;0.30;;;0.30;;
79284;SDS011;68734;50.452;11.636;2023-08-21T08:59:09;0.50;;;0.50;;
79284;SDS011;68734;50.452;11.636;2023-08-21T09:01:34;0.63;;;0.63;;
79284;SDS011;68734;50.452;11.636;2023-08-21T09:04:00;1.10;;;0.45;;
79284;SDS011;68734;50.452;11.636;2023-08-21T09:06:26;0.55;;;0.40;;
79284;SDS011;68734;50.452;11.636;2023-08-21T09:08:53;0.30;;;0.30;;
79284;SDS011;68734;50.452;11.636;2023-08-21T09:11:22;0.45;;;0.45;;
79284;SDS011;68734;50.452;11.636;2023-08-21T09:13:49;0.63;;;0.40;;
79284;SDS011;68734;50.452;11.636;2023-08-21T09:16:16;0.40;;;0.40;;
79284;SDS011;68734;50.452;11.636;2023-08-21T09:18:49;2.72;;;0.77;;
79284;SDS011;68734;50.452;11.636;2023-08-21T09:21:24;0.65;;;0.50;;
79284;SDS011;68734;50.452;11.636;2023-08-21T09:23:56;0.40;;;0.40;;
79284;SDS011;68734;50.452;11.636;2023-08-21T09:26:24;0.40;;;0.40;;
79284;SDS011;68734;50.452;11.636;2023-08-21T09:28:51;0.40;;;0.40;;
79284;SDS011;68734;50.452;11.636;2023-08-21T09:31:50;0.50;;;0.50;;
79284;SDS011;68734;50.452;11.636;2023-08-21T09:34:10;0.43;;;0.43;;
79284;SDS011;68734;50.452;11.636;2023-08-21T09:36:36;0.30;;;0.30;;
79284;SDS011;68734;50.452;11.636;2023-08-21T09:39:04;0.28;;;0.28;;
79284;SDS011;68734;50.452;11.636;2023-08-21T09:41:31;0.35;;;0.35;;
79284;SDS011;68734;50.452;11.636;2023-08-21T09:44:00;0.30;;;0.30;;
79284;SDS011;68734;50.452;11.636;2023-08-21T09:46:26;0.68;;;0.30;;
79284;SDS011;68734;50.452;11.636;2023-08-21T09:48:55;0.65;;;0.35;;
79284;SDS011;68734;50.452;11.636;2023-08-21T09:51:21;0.30;;;0.30;;
79284;SDS011;68734;50.452;11.636;2023-08-21T09:53:49;0.38;;;0.32;;
79284;SDS011;68734;50.452;11.636;2023-08-21T09:56:17;0.38;;;0.38;;
79284;SDS011;68734;50.452;11.636;2023-08-21T09:58:43;0.30;;;0.20;;
79284;SDS011;68734;50.452;11.636;2023-08-21T10:01:09;0.30;;;0.20;;
79284;SDS011;68734;50.452;11.636;2023-08-21T10:03:42;0.20;;;0.20;;
79284;SDS011;68734;50.452;11.636;2023-08-21T10:06:12;0.40;;;0.40;;
79284;SDS011;68734;50.452;11.636;2023-08-21T10:08:42;0.60;;;0.52;;
79284;SDS011;68734;50.452;11.636;2023-08-21T10:11:09;0.32;;;0.32;;
79284;SDS011;68734;50.452;11.636;2023-08-21T10:13:36;0.30;;;0.30;;
79284;SDS011;68734;50.452;11.636;2023-08-21T10:16:03;0.40;;;0.40;;
79284;SDS011;68734;50.452;11.636;2023-08-21T10:18:31;0.20;;;0.20;;
79284;SDS011;68734;50.452;11.636;2023-08-21T10:21:17;0.22;;;0.22;;
79284;SDS011;68734;50.452;11.636;2023-08-21T10:23:49;0.20;;;0.20;;
79284;SDS011;68734;50.452;11.636;2023-08-21T10:26:16;0.22;;;0.10;;
79284;SDS011;68734;50.452;11.636;2023-08-21T10:28:51;0.25;;;0.25;;
79284;SDS011;68734;50.452;11.636;2023-08-21T10:33:59;0.30;;;0.28;;
79284;SDS011;68734;50.452;11.636;2023-08-21T10:39:14;0.30;;;0.25;;
79284;SDS011;68734;50.452;11.636;2023-08-21T10:49:50;0.20;;;0.20;;
79284;SDS011;68734;50.452;11.636;2023-08-21T10:52:21;0.10;;;0.10;;
79284;SDS011;68734;50.452;11.636;2023-08-21T10:55:02;0.20;;;0.20;;
79284;SDS011;68734;50.452;11.636;2023-08-21T10:57:29;0.32;;;0.20;;
79284;SDS011;68734;50.452;11.636;2023-08-21T10:59:57;0.10;;;0.10;;
79284;SDS011;68734;50.452;11.636;2023-08-21T11:02:29;0.30;;;0.22;;
79284;SDS011;68734;50.452;11.636;2023-08-21T11:04:55;0.10;;;0.10;;
79284;SDS011;68734;50.452;11.636;2023-08-21T11:07:24;0.25;;;0.25;;
79284;SDS011;68734;50.452;11.636;2023-08-21T11:09:50;0.10;;;0.08;;
79284;SDS011;68734;50.452;11.636;2023-08-21T11:12:17;0.10;;;0.10;;
79284;SDS011;68734;50.452;11.636;2023-08-21T11:14:44;0.13;;;0.13;;
79284;SDS011;68734;50.452;11.636;2023-08-21T11:17:10;0.10;;;0.10;;
79284;SDS011;68734;50.452;11.636;2023-08-21T11:19:36;0.60;;;0.20;;
79284;SDS011;68734;50.452;11.636;2023-08-21T11:22:02;0.10;;;0.10;;
79284;SDS011;68734;50.452;11.636;2023-08-21T11:27:03;0.28;;;0.20;;
79284;SDS011;68734;50.452;11.636;2023-08-21T11:29:43;0.20;;;0.20;;
79284;SDS011;68734;50.452;11.636;2023-08-21T11:32:18;0.10;;;0.10;;
79284;SDS011;68734;50.452;11.636;2023-08-21T11:34:49;0.20;;;0.20;;
79284;SDS011;68734;50.452;11.636;2023-08-21T11:39:47;0.10;;;0.10;;
79284;SDS011;68734;50.452;11.636;2023-08-21T11:42:14;0.10;;;0.10;;
79284;SDS011;68734;50.452;11.636;2023-08-21T11:44:48;0.20;;;0.20;;
79284;SDS011;68734;50.452;11.636;2023-08-21T11:47:16;0.10;;;0.10;;
79284;SDS011;68734;50.452;11.636;2023-08-21T11:49:43;0.20;;;0.20;;
79284;SDS011;68734;50.452;11.636;2023-08-21T11:52:12;0.50;;;0.20;;
79284;SDS011;68734;50.452;11.636;2023-08-21T11:54:39;0.00;;;0.00;;
79284;SDS011;68734;50.452;11.636;2023-08-21T11:57:11;0.10;;;0.10;;
79284;SDS011;68734;50.452;11.636;2023-08-21T11:59:38;0.10;;;0.10;;
79284;SDS011;68734;50.452;11.636;2023-08-21T12:02:13;0.15;;;0.15;;
79284;SDS011;68734;50.452;11.636;2023-08-21T12:04:40;0.05;;;0.05;;
79284;SDS011;68734;50.452;11.636;2023-08-21T12:07:07;0.10;;;0.10;;
79284;SDS011;68734;50.452;11.636;2023-08-21T12:09:32;0.08;;;0.08;;
79284;SDS011;68734;50.452;11.636;2023-08-21T12:11:58;0.20;;;0.10;;
79284;SDS011;68734;50.452;11.636;2023-08-21T12:14:27;0.88;;;0.20;;
79284;SDS011;68734;50.452;11.636;2023-08-21T12:16:53;0.80;;;0.15;;
79284;SDS011;68734;50.452;11.636;2023-08-21T12:19:19;0.10;;;0.10;;
79284;SDS011;68734;50.452;11.636;2023-08-21T12:21:48;0.30;;;0.15;;
79284;SDS011;68734;50.452;11.636;2023-08-21T12:24:16;0.20;;;0.20;;
79284;SDS011;68734;50.452;11.636;2023-08-21T12:26:41;0.30;;;0.25;;
79284;SDS011;68734;50.452;11.636;2023-08-21T12:29:06;0.40;;;0.20;;
79284;SDS011;68734;50.452;11.636;2023-08-21T12:31:32;0.10;;;0.10;;
79284;SDS011;68734;50.452;11.636;2023-08-21T12:33:57;0.20;;;0.10;;
79284;SDS011;68734;50.452;11.636;2023-08-21T12:36:24;0.10;;;0.10;;
79284;SDS011;68734;50.452;11.636;2023-08-21T12:38:52;0.43;;;0.20;;
79284;SDS011;68734;50.452;11.636;2023-08-21T12:41:17;0.50;;;0.20;;
79284;SDS011;68734;50.452;11.636;2023-08-21T12:43:43;0.00;;;0.00;;
79284;SDS011;68734;50.452;11.636;2023-08-21T12:46:08;0.38;;;0.13;;
79284;SDS011;68734;50.452;11.636;2023-08-21T12:48:34;0.15;;;0.10;;
79284;SDS011;68734;50.452;11.636;2023-08-21T12:50:59;0.20;;;0.17;;
79284;SDS011;68734;50.452;11.636;2023-08-21T12:53:27;0.28;;;0.20;;
79284;SDS011;68734;50.452;11.636;2023-08-21T12:55:52;0.20;;;0.20;;
79284;SDS011;68734;50.452;11.636;2023-08-21T12:58:18;0.40;;;0.10;;
79284;SDS011;68734;50.452;11.636;2023-08-21T13:00:46;0.43;;;0.20;;
79284;SDS011;68734;50.452;11.636;2023-08-21T13:03:13;0.20;;;0.10;;
79284;SDS011;68734;50.452;11.636;2023-08-21T13:05:41;0.38;;;0.22;;
79284;SDS011;68734;50.452;11.636;2023-08-21T13:08:09;0.00;;;0.00;;
79284;SDS011;68734;50.452;11.636;2023-08-21T13:10:37;0.22;;;0.10;;
79284;SDS011;68734;50.452;11.636;2023-08-21T13:13:04;0.10;;;0.10;;
79284;SDS011;68734;50.452;11.636;2023-08-21T13:15:30;0.10;;;0.10;;
79284;SDS011;68734;50.452;11.636;2023-08-21T13:17:56;0.10;;;0.10;;
79284;SDS011;68734;50.452;11.636;2023-08-21T13:20:22;0.20;;;0.20;;
79284;SDS011;68734;50.452;11.636;2023-08-21T13:22:49;0.10;;;0.10;;
79284;SDS011;68734;50.452;11.636;2023-08-21T13:25:20;0.10;;;0.10;;
79284;SDS011;68734;50.452;11.636;2023-08-21T13:27:48;0.10;;;0.10;;
79284;SDS011;68734;50.452;11.636;2023-08-21T13:30:14;0.10;;;0.10;;
79284;SDS011;68734;50.452;11.636;2023-08-21T13:32:42;0.10;;;0.10;;
79284;SDS011;68734;50.452;11.636;2023-08-21T13:35:10;0.20;;;0.10;;
79284;SDS011;68734;50.452;11.636;2023-08-21T13:37:37;0.05;;;0.05;;
79284;SDS011;68734;50.452;11.636;2023-08-21T13:40:03;0.20;;;0.10;;
79284;SDS011;68734;50.452;11.636;2023-08-21T13:42:41;0.20;;;0.10;;
79284;SDS011;68734;50.452;11.636;2023-08-21T13:45:11;0.45;;;0.20;;
79284;SDS011;68734;50.452;11.636;2023-08-21T13:47:42;0.17;;;0.17;;
79284;SDS011;68734;50.452;11.636;2023-08-21T13:50:12;0.10;;;0.10;;
79284;SDS011;68734;50.452;11.636;2023-08-21T13:52:41;0.57;;;0.15;;
79284;SDS011;68734;50.452;11.636;2023-08-21T13:55:08;0.88;;;0.20;;
79284;SDS011;68734;50.452;11.636;2023-08-21T13:57:34;0.20;;;0.20;;
79284;SDS011;68734;50.452;11.636;2023-08-21T14:00:03;0.68;;;0.20;;
79284;SDS011;68734;50.452;11.636;2023-08-21T14:02:33;0.10;;;0.10;;
79284;SDS011;68734;50.452;11.636;2023-08-21T14:05:03;0.30;;;0.20;;
79284;SDS011;68734;50.452;11.636;2023-08-21T14:07:30;0.20;;;0.20;;
79284;SDS011;68734;50.452;11.636;2023-08-21T14:09:56;0.15;;;0.00;;
79284;SDS011;68734;50.452;11.636;2023-08-21T14:12:22;0.30;;;0.20;;
79284;SDS011;68734;50.452;11.636;2023-08-21T14:14:47;0.35;;;0.10;;
79284;SDS011;68734;50.452;11.636;2023-08-21T14:17:13;0.17;;;0.10;;
79284;SDS011;68734;50.452;11.636;2023-08-21T14:19:38;0.40;;;0.20;;
79284;SDS011;68734;50.452;11.636;2023-08-21T14:22:04;0.45;;;0.22;;
79284;SDS011;68734;50.452;11.636;2023-08-21T14:24:29;0.35;;;0.20;;
79284;SDS011;68734;50.452;11.636;2023-08-21T14:26:55;0.52;;;0.20;;
79284;SDS011;68734;50.452;11.636;2023-08-21T14:29:21;0.52;;;0.20;;
79284;SDS011;68734;50.452;11.636;2023-08-21T14:31:46;1.45;;;0.20;;
79284;SDS011;68734;50.452;11.636;2023-08-21T14:34:13;0.10;;;0.10;;
79284;SDS011;68734;50.452;11.636;2023-08-21T14:36:40;0.20;;;0.20;;
79284;SDS011;68734;50.452;11.636;2023-08-21T14:39:07;0.25;;;0.10;;
79284;SDS011;68734;50.452;11.636;2023-08-21T14:41:32;0.15;;;0.15;;
79284;SDS011;68734;50.452;11.636;2023-08-21T14:43:58;0.10;;;0.10;;
79284;SDS011;68734;50.452;11.636;2023-08-21T14:46:23;0.25;;;0.05;;
79284;SDS011;68734;50.452;11.636;2023-08-21T14:48:49;0.20;;;0.10;;
79284;SDS011;68734;50.452;11.636;2023-08-21T14:51:14;0.10;;;0.10;;